sensor_id;sensor_type;location;lat;lon;timestamp;pressure;altitude;pressure_sealevel;temperature
64458;BMP280;58438;51.200;7.252;2024-01-11T00:01:53;98972.13;;;-3.83
64458;BMP280;58438;51.200;7.252;2024-01-11T00:04:42;98972.81;;;-3.86
64458;BMP280;58438;51.200;7.252;2024-01-11T00:07:29;98972.13;;;-3.83
64458;BMP280;58438;51.200;7.252;2024-01-11T00:10:16;98970.75;;;-3.77
64458;BMP280;58438;51.200;7.252;2024-01-11T00:13:03;98975.22;;;-3.81
64458;BMP280;58438;51.200;7.252;2024-01-11T00:15:52;98972.81;;;-3.86
64458;BMP280;58438;51.200;7.252;2024-01-11T00:18:39;98975.06;;;-3.88
64458;BMP280;58438;51.200;7.252;2024-01-11T00:21:27;98972.13;;;-3.83
64458;BMP280;58438;51.200;7.252;2024-01-11T00:24:14;98972.03;;;-3.86
64458;BMP280;58438;51.200;7.252;2024-01-11T00:27:01;98973.16;;;-3.87
64458;BMP280;58438;51.200;7.252;2024-01-11T00:29:48;98970.50;;;-3.87
64458;BMP280;58438;51.200;7.252;2024-01-11T00:32:35;98966.94;;;-3.91
64458;BMP280;58438;51.200;7.252;2024-01-11T00:35:23;98968.06;;;-3.92
64458;BMP280;58438;51.200;7.252;2024-01-11T00:38:11;98957.56;;;-3.89
64458;BMP280;58438;51.200;7.252;2024-01-11T00:40:58;98970.94;;;-3.85
64458;BMP280;58438;51.200;7.252;2024-01-11T00:43:45;98961.38;;;-3.86
64458;BMP280;58438;51.200;7.252;2024-01-11T00:46:33;98959.09;;;-3.88
64458;BMP280;58438;51.200;7.252;2024-01-11T00:49:20;98954.41;;;-3.91
64458;BMP280;58438;51.200;7.252;2024-01-11T00:52:07;98955.94;;;-3.90
64458;BMP280;58438;51.200;7.252;2024-01-11T00:54:56;98947.66;;;-3.88
64458;BMP280;58438;51.200;7.252;2024-01-11T00:57:43;98952.66;;;-3.87
64458;BMP280;58438;51.200;7.252;2024-01-11T01:00:30;98955.75;;;-3.85
64458;BMP280;58438;51.200;7.252;2024-01-11T01:03:19;98950.75;;;-3.86
64458;BMP280;58438;51.200;7.252;2024-01-11T01:06:09;98953.06;;;-3.85
64458;BMP280;58438;51.200;7.252;2024-01-11T01:08:59;98949.66;;;-3.70
64458;BMP280;58438;51.200;7.252;2024-01-11T01:11:52;98953.97;;;-3.65
64458;BMP280;58438;51.200;7.252;2024-01-11T01:14:43;98959.63;;;-3.67
64458;BMP280;58438;51.200;7.252;2024-01-11T01:17:33;98960.63;;;-3.71
64458;BMP280;58438;51.200;7.252;2024-01-11T01:20:23;98955.56;;;-3.76
64458;BMP280;58438;51.200;7.252;2024-01-11T01:23:13;98958.41;;;-3.85
64458;BMP280;58438;51.200;7.252;2024-01-11T01:26:05;98949.38;;;-3.80
64458;BMP280;58438;51.200;7.252;2024-01-11T01:28:58;98946.97;;;-3.70
64458;BMP280;58438;51.200;7.252;2024-01-11T01:31:48;98957.63;;;-3.70
64458;BMP280;58438;51.200;7.252;2024-01-11T01:34:38;98957.91;;;-3.59
64458;BMP280;58438;51.200;7.252;2024-01-11T01:37:32;98972.00;;;-3.59
64458;BMP280;58438;51.200;7.252;2024-01-11T01:40:22;98969.34;;;-3.59
64458;BMP280;58438;51.200;7.252;2024-01-11T01:43:13;98978.94;;;-3.54
64458;BMP280;58438;51.200;7.252;2024-01-11T01:46:05;98979.28;;;-3.56
64458;BMP280;58438;51.200;7.252;2024-01-11T01:48:57;98976.97;;;-3.57
64458;BMP280;58438;51.200;7.252;2024-01-11T01:51:47;98974.97;;;-3.45
64458;BMP280;58438;51.200;7.252;2024-01-11T01:54:37;98965.81;;;-3.63
64458;BMP280;58438;51.200;7.252;2024-01-11T01:57:28;98970.44;;;-3.60
64458;BMP280;58438;51.200;7.252;2024-01-11T02:00:18;98976.63;;;-3.56
64458;BMP280;58438;51.200;7.252;2024-01-11T02:03:11;98969.59;;;-3.64
64458;BMP280;58438;51.200;7.252;2024-01-11T02:06:01;98964.03;;;-3.59
64458;BMP280;58438;51.200;7.252;2024-01-11T02:08:52;98959.13;;;-3.57
64458;BMP280;58438;51.200;7.252;2024-01-11T02:11:43;98961.94;;;-3.65
64458;BMP280;58438;51.200;7.252;2024-01-11T02:14:34;98968.06;;;-3.65
64458;BMP280;58438;51.200;7.252;2024-01-11T02:17:24;98952.47;;;-3.78
64458;BMP280;58438;51.200;7.252;2024-01-11T02:20:16;98949.31;;;-3.68
64458;BMP280;58438;51.200;7.252;2024-01-11T02:23:08;98953.84;;;-3.69
64458;BMP280;58438;51.200;7.252;2024-01-11T02:25:59;98958.63;;;-3.62
64458;BMP280;58438;51.200;7.252;2024-01-11T02:28:48;98964.69;;;-3.62
64458;BMP280;58438;51.200;7.252;2024-01-11T02:31:35;98964.94;;;-3.67
64458;BMP280;58438;51.200;7.252;2024-01-11T02:34:22;98954.06;;;-3.62
64458;BMP280;58438;51.200;7.252;2024-01-11T02:37:10;98950.75;;;-3.71
64458;BMP280;58438;51.200;7.252;2024-01-11T02:39:57;98952.31;;;-3.85
64458;BMP280;58438;51.200;7.252;2024-01-11T02:42:46;98947.84;;;-3.81
64458;BMP280;58438;51.200;7.252;2024-01-11T02:45:33;98954.41;;;-3.91
64458;BMP280;58438;51.200;7.252;2024-01-11T02:48:20;98960.44;;;-3.94
64458;BMP280;58438;51.200;7.252;2024-01-11T02:51:07;98954.88;;;-3.89
64458;BMP280;58438;51.200;7.252;2024-01-11T02:53:54;98957.69;;;-3.97
64458;BMP280;58438;51.200;7.252;2024-01-11T02:56:41;98951.06;;;-4.03
64458;BMP280;58438;51.200;7.252;2024-01-11T02:59:30;98938.97;;;-4.01
64458;BMP280;58438;51.200;7.252;2024-01-11T03:02:17;98940.78;;;-3.89
64458;BMP280;58438;51.200;7.252;2024-01-11T03:05:04;98933.50;;;-3.92
64458;BMP280;58438;51.200;7.252;2024-01-11T03:07:51;98935.78;;;-3.91
64458;BMP280;58438;51.200;7.252;2024-01-11T03:10:38;98935.75;;;-3.79
64458;BMP280;58438;51.200;7.252;2024-01-11T03:13:25;98945.69;;;-3.76
64458;BMP280;58438;51.200;7.252;2024-01-11T03:16:14;98939.94;;;-3.78
64458;BMP280;58438;51.200;7.252;2024-01-11T03:19:01;98950.94;;;-3.79
64458;BMP280;58438;51.200;7.252;2024-01-11T03:21:48;98945.59;;;-3.79
64458;BMP280;58438;51.200;7.252;2024-01-11T03:24:37;98947.22;;;-3.75
64458;BMP280;58438;51.200;7.252;2024-01-11T03:27:24;98951.63;;;-3.82
64458;BMP280;58438;51.200;7.252;2024-01-11T03:30:12;98951.88;;;-3.87
64458;BMP280;58438;51.200;7.252;2024-01-11T03:33:00;98951.88;;;-3.87
64458;BMP280;58438;51.200;7.252;2024-01-11T03:35:48;98949.09;;;-3.91
64458;BMP280;58438;51.200;7.252;2024-01-11T03:38:35;98943.69;;;-3.94
64458;BMP280;58438;51.200;7.252;2024-01-11T03:41:22;98941.38;;;-3.96
64458;BMP280;58438;51.200;7.252;2024-01-11T03:44:10;98941.28;;;-3.99
64458;BMP280;58438;51.200;7.252;2024-01-11T03:46:57;98942.50;;;-3.97
64458;BMP280;58438;51.200;7.252;2024-01-11T03:49:45;98936.81;;;-3.95
64458;BMP280;58438;51.200;7.252;2024-01-11T03:52:33;98936.91;;;-3.92
64458;BMP280;58438;51.200;7.252;2024-01-11T03:55:20;98939.84;;;-3.97
64458;BMP280;58438;51.200;7.252;2024-01-11T03:58:07;98951.16;;;-4.00
64458;BMP280;58438;51.200;7.252;2024-01-11T04:00:54;98939.75;;;-4.00
64458;BMP280;58438;51.200;7.252;2024-01-11T04:03:41;98955.81;;;-3.97
64458;BMP280;58438;51.200;7.252;2024-01-11T04:06:30;98965.56;;;-4.01
64458;BMP280;58438;51.200;7.252;2024-01-11T04:09:17;98964.44;;;-4.00
64458;BMP280;58438;51.200;7.252;2024-01-11T04:12:06;98956.28;;;-4.07
64458;BMP280;58438;51.200;7.252;2024-01-11T04:14:53;98958.41;;;-4.12
64458;BMP280;58438;51.200;7.252;2024-01-11T04:17:40;98959.66;;;-4.22
64458;BMP280;58438;51.200;7.252;2024-01-11T04:20:27;98963.97;;;-4.17
64458;BMP280;58438;51.200;7.252;2024-01-11T04:23:16;98964.66;;;-4.32
64458;BMP280;58438;51.200;7.252;2024-01-11T04:26:03;98960.03;;;-4.35
64458;BMP280;58438;51.200;7.252;2024-01-11T04:28:51;98951.34;;;-4.48
64458;BMP280;58438;51.200;7.252;2024-01-11T04:31:41;98954.56;;;-4.54
64458;BMP280;58438;51.200;7.252;2024-01-11T04:34:28;98949.22;;;-4.42
64458;BMP280;58438;51.200;7.252;2024-01-11T04:37:15;98957.09;;;-4.46
64458;BMP280;58438;51.200;7.252;2024-01-11T04:40:05;98953.69;;;-4.46
64458;BMP280;58438;51.200;7.252;2024-01-11T04:42:53;98949.59;;;-4.56
64458;BMP280;58438;51.200;7.252;2024-01-11T04:45:40;98955.66;;;-4.55
64458;BMP280;58438;51.200;7.252;2024-01-11T04:48:28;98955.56;;;-4.59
64458;BMP280;58438;51.200;7.252;2024-01-11T04:51:15;98958.78;;;-4.53
64458;BMP280;58438;51.200;7.252;2024-01-11T04:54:03;98968.16;;;-4.44
64458;BMP280;58438;51.200;7.252;2024-01-11T04:56:51;98954.63;;;-4.39
64458;BMP280;58438;51.200;7.252;2024-01-11T04:59:38;98957.28;;;-4.51
64458;BMP280;58438;51.200;7.252;2024-01-11T05:02:25;98961.13;;;-4.64
64458;BMP280;58438;51.200;7.252;2024-01-11T05:05:12;98948.50;;;-4.67
64458;BMP280;58438;51.200;7.252;2024-01-11T05:07:59;98947.22;;;-4.85
64458;BMP280;58438;51.200;7.252;2024-01-11T05:10:46;98951.94;;;-4.78
64458;BMP280;58438;51.200;7.252;2024-01-11T05:13:35;98955.38;;;-4.78
64458;BMP280;58438;51.200;7.252;2024-01-11T05:16:23;98953.03;;;-4.67
64458;BMP280;58438;51.200;7.252;2024-01-11T05:19:10;98952.59;;;-4.69
64458;BMP280;58438;51.200;7.252;2024-01-11T05:21:57;98966.53;;;-4.72
64458;BMP280;58438;51.200;7.252;2024-01-11T05:24:45;98966.34;;;-4.79
64458;BMP280;58438;51.200;7.252;2024-01-11T05:27:32;98946.78;;;-4.99
64458;BMP280;58438;51.200;7.252;2024-01-11T05:30:20;98945.03;;;-4.95
64458;BMP280;58438;51.200;7.252;2024-01-11T05:33:07;98956.72;;;-4.84
64458;BMP280;58438;51.200;7.252;2024-01-11T05:35:55;98961.47;;;-4.89
64458;BMP280;58438;51.200;7.252;2024-01-11T05:38:42;98967.38;;;-4.96
64458;BMP280;58438;51.200;7.252;2024-01-11T05:41:30;98964.25;;;-4.98
64458;BMP280;58438;51.200;7.252;2024-01-11T05:44:17;98968.00;;;-4.87
64458;BMP280;58438;51.200;7.252;2024-01-11T05:47:05;98974.97;;;-4.94
64458;BMP280;58438;51.200;7.252;2024-01-11T05:49:52;98977.63;;;-4.94
64458;BMP280;58438;51.200;7.252;2024-01-11T05:52:39;98985.84;;;-4.99
64458;BMP280;58438;51.200;7.252;2024-01-11T05:55:26;98990.69;;;-5.01
64458;BMP280;58438;51.200;7.252;2024-01-11T05:58:13;98989.91;;;-5.02
64458;BMP280;58438;51.200;7.252;2024-01-11T06:01:01;99000.78;;;-4.95
64458;BMP280;58438;51.200;7.252;2024-01-11T06:04:49;99008.28;;;-4.97
64458;BMP280;58438;51.200;7.252;2024-01-11T06:08:06;99004.09;;;-4.98
64458;BMP280;58438;51.200;7.252;2024-01-11T06:11:15;99017.25;;;-5.01
64458;BMP280;58438;51.200;7.252;2024-01-11T06:14:23;99002.19;;;-5.09
64458;BMP280;58438;51.200;7.252;2024-01-11T06:17:21;99006.97;;;-5.15
64458;BMP280;58438;51.200;7.252;2024-01-11T06:20:24;99005.84;;;-5.26
64458;BMP280;58438;51.200;7.252;2024-01-11T06:23:28;98984.81;;;-5.19
64458;BMP280;58438;51.200;7.252;2024-01-11T06:26:33;98998.31;;;-5.24
64458;BMP280;58438;51.200;7.252;2024-01-11T06:29:48;98997.03;;;-5.18
64458;BMP280;58438;51.200;7.252;2024-01-11T06:33:22;98995.44;;;-5.19
64458;BMP280;58438;51.200;7.252;2024-01-11T06:36:56;99001.22;;;-5.17
64458;BMP280;58438;51.200;7.252;2024-01-11T06:40:12;98994.13;;;-5.13
64458;BMP280;58438;51.200;7.252;2024-01-11T06:43:26;98984.41;;;-5.09
64458;BMP280;58438;51.200;7.252;2024-01-11T06:46:41;98987.72;;;-5.00
64458;BMP280;58438;51.200;7.252;2024-01-11T06:50:00;98993.25;;;-4.93
64458;BMP280;58438;51.200;7.252;2024-01-11T06:56:47;99006.63;;;-4.89
64458;BMP280;58438;51.200;7.252;2024-01-11T07:00:11;99013.03;;;-4.90
64458;BMP280;58438;51.200;7.252;2024-01-11T07:03:30;99006.94;;;-4.91
64458;BMP280;58438;51.200;7.252;2024-01-11T07:06:30;99018.47;;;-4.99
64458;BMP280;58438;51.200;7.252;2024-01-11T07:09:17;99018.91;;;-4.97
64458;BMP280;58438;51.200;7.252;2024-01-11T07:12:19;99030.88;;;-4.79
64458;BMP280;58438;51.200;7.252;2024-01-11T07:15:11;99039.28;;;-4.77
64458;BMP280;58438;51.200;7.252;2024-01-11T07:18:09;99040.59;;;-4.83
64458;BMP280;58438;51.200;7.252;2024-01-11T07:21:27;99047.31;;;-4.85
64458;BMP280;58438;51.200;7.252;2024-01-11T07:24:35;99044.13;;;-4.91
64458;BMP280;58438;51.200;7.252;2024-01-11T07:27:34;99044.91;;;-4.90
64458;BMP280;58438;51.200;7.252;2024-01-11T07:30:36;99053.09;;;-4.95
64458;BMP280;58438;51.200;7.252;2024-01-11T07:34:49;99054.53;;;-4.98
64458;BMP280;58438;51.200;7.252;2024-01-11T07:38:09;99062.16;;;-4.96
64458;BMP280;58438;51.200;7.252;2024-01-11T07:44:37;99073.78;;;-4.89
64458;BMP280;58438;51.200;7.252;2024-01-11T07:47:50;99079.69;;;-4.83
64458;BMP280;58438;51.200;7.252;2024-01-11T07:50:54;99073.47;;;-4.75
64458;BMP280;58438;51.200;7.252;2024-01-11T07:57:22;99079.69;;;-4.83
64458;BMP280;58438;51.200;7.252;2024-01-11T08:00:32;99068.16;;;-4.75
64458;BMP280;58438;51.200;7.252;2024-01-11T08:06:47;99069.28;;;-4.76
64458;BMP280;58438;51.200;7.252;2024-01-11T08:09:45;99067.81;;;-4.74
64458;BMP280;58438;51.200;7.252;2024-01-11T08:12:49;99063.50;;;-4.78
64458;BMP280;58438;51.200;7.252;2024-01-11T08:15:43;99065.72;;;-4.80
64458;BMP280;58438;51.200;7.252;2024-01-11T08:19:08;99062.84;;;-4.75
64458;BMP280;58438;51.200;7.252;2024-01-11T08:26:40;99068.38;;;-4.80
64458;BMP280;58438;51.200;7.252;2024-01-11T08:30:07;99070.47;;;-4.74
64458;BMP280;58438;51.200;7.252;2024-01-11T08:33:33;99064.06;;;-4.73
64458;BMP280;58438;51.200;7.252;2024-01-11T08:36:36;99060.53;;;-4.77
64458;BMP280;58438;51.200;7.252;2024-01-11T08:39:57;99060.06;;;-4.67
64458;BMP280;58438;51.200;7.252;2024-01-11T08:46:43;99073.69;;;-4.56
64458;BMP280;58438;51.200;7.252;2024-01-11T08:49:55;99081.31;;;-4.55
64458;BMP280;58438;51.200;7.252;2024-01-11T08:53:10;99089.06;;;-4.50
64458;BMP280;58438;51.200;7.252;2024-01-11T08:56:07;99087.31;;;-4.46
64458;BMP280;58438;51.200;7.252;2024-01-11T09:03:02;99099.91;;;-4.19
64458;BMP280;58438;51.200;7.252;2024-01-11T09:12:59;99123.66;;;-3.86
64458;BMP280;58438;51.200;7.252;2024-01-11T09:16:27;99131.69;;;-3.71
64458;BMP280;58438;51.200;7.252;2024-01-11T09:23:34;99142.78;;;-3.41
64458;BMP280;58438;51.200;7.252;2024-01-11T09:27:12;99148.81;;;-3.29
64458;BMP280;58438;51.200;7.252;2024-01-11T09:34:14;99154.31;;;-2.63
64458;BMP280;58438;51.200;7.252;2024-01-11T09:42:24;99182.25;;;-1.92
64458;BMP280;58438;51.200;7.252;2024-01-11T09:46:05;99189.94;;;-1.52
64458;BMP280;58438;51.200;7.252;2024-01-11T09:49:37;99188.19;;;-1.26
64458;BMP280;58438;51.200;7.252;2024-01-11T09:53:10;99196.06;;;-1.14
64458;BMP280;58438;51.200;7.252;2024-01-11T10:00:09;99202.91;;;-0.94
64458;BMP280;58438;51.200;7.252;2024-01-11T10:03:17;99206.53;;;-0.60
64458;BMP280;58438;51.200;7.252;2024-01-11T10:06:30;99210.41;;;-0.32
64458;BMP280;58438;51.200;7.252;2024-01-11T10:09:47;99196.72;;;-0.30
64458;BMP280;58438;51.200;7.252;2024-01-11T10:12:49;99194.59;;;-0.18
64458;BMP280;58438;51.200;7.252;2024-01-11T10:15:54;99194.03;;;-0.05
64458;BMP280;58438;51.200;7.252;2024-01-11T10:19:24;99188.91;;;0.13
64458;BMP280;58438;51.200;7.252;2024-01-11T10:22:18;99187.47;;;0.19
64458;BMP280;58438;51.200;7.252;2024-01-11T10:25:12;99188.59;;;0.18
64458;BMP280;58438;51.200;7.252;2024-01-11T10:28:11;99202.44;;;0.23
64458;BMP280;58438;51.200;7.252;2024-01-11T10:31:01;99206.00;;;0.34
64458;BMP280;58438;51.200;7.252;2024-01-11T10:33:57;99213.31;;;0.37
64458;BMP280;58438;51.200;7.252;2024-01-11T10:37:08;99217.13;;;0.36
64458;BMP280;58438;51.200;7.252;2024-01-11T10:40:36;99204.50;;;0.37
64458;BMP280;58438;51.200;7.252;2024-01-11T10:44:01;99207.31;;;0.47
64458;BMP280;58438;51.200;7.252;2024-01-11T10:47:08;99217.72;;;0.52
64458;BMP280;58438;51.200;7.252;2024-01-11T10:50:41;99227.03;;;0.62
64458;BMP280;58438;51.200;7.252;2024-01-11T10:53:55;99227.81;;;0.66
64458;BMP280;58438;51.200;7.252;2024-01-11T10:57:10;99229.00;;;0.68
64458;BMP280;58438;51.200;7.252;2024-01-11T11:00:16;99220.28;;;0.78
64458;BMP280;58438;51.200;7.252;2024-01-11T11:03:19;99219.63;;;0.85
64458;BMP280;58438;51.200;7.252;2024-01-11T11:06:15;99205.06;;;0.86
64458;BMP280;58438;51.200;7.252;2024-01-11T11:09:13;99209.91;;;1.10
64458;BMP280;58438;51.200;7.252;2024-01-11T11:12:33;99212.66;;;1.17
64458;BMP280;58438;51.200;7.252;2024-01-11T11:15:46;99219.31;;;1.30
64458;BMP280;58438;51.200;7.252;2024-01-11T11:18:37;99208.59;;;1.30
64458;BMP280;58438;51.200;7.252;2024-01-11T11:21:32;99206.25;;;1.28
64458;BMP280;58438;51.200;7.252;2024-01-11T11:31:37;99207.38;;;1.74
64458;BMP280;58438;51.200;7.252;2024-01-11T11:34:43;99200.41;;;1.66
64458;BMP280;58438;51.200;7.252;2024-01-11T11:38:02;99206.13;;;1.65
64458;BMP280;58438;51.200;7.252;2024-01-11T11:41:21;99208.06;;;1.64
64458;BMP280;58438;51.200;7.252;2024-01-11T11:45:00;99225.44;;;1.81
64458;BMP280;58438;51.200;7.252;2024-01-11T11:55:30;99208.75;;;2.15
64458;BMP280;58438;51.200;7.252;2024-01-11T11:59:02;99210.72;;;2.25
64458;BMP280;58438;51.200;7.252;2024-01-11T12:02:16;99202.66;;;2.36
64458;BMP280;58438;51.200;7.252;2024-01-11T12:05:45;99197.75;;;2.52
64458;BMP280;58438;51.200;7.252;2024-01-11T12:09:11;99188.94;;;2.65
64458;BMP280;58438;51.200;7.252;2024-01-11T12:12:36;99184.00;;;2.78
64458;BMP280;58438;51.200;7.252;2024-01-11T12:16:10;99166.72;;;2.96
64458;BMP280;58438;51.200;7.252;2024-01-11T12:19:34;99159.81;;;3.05
64458;BMP280;58438;51.200;7.252;2024-01-11T12:23:06;99155.56;;;3.25
64458;BMP280;58438;51.200;7.252;2024-01-11T12:26:07;99165.16;;;3.37
64458;BMP280;58438;51.200;7.252;2024-01-11T12:45:08;99195.50;;;3.69
64458;BMP280;58438;51.200;7.252;2024-01-11T12:55:48;99208.94;;;3.83
64458;BMP280;58438;51.200;7.252;2024-01-11T12:59:12;99208.94;;;3.79
64458;BMP280;58438;51.200;7.252;2024-01-11T13:25:44;99202.31;;;4.12
64458;BMP280;58438;51.200;7.252;2024-01-11T13:29:30;99195.38;;;4.14
64458;BMP280;58438;51.200;7.252;2024-01-11T13:40:18;99195.38;;;4.11
64458;BMP280;58438;51.200;7.252;2024-01-11T13:46:59;99194.66;;;3.96
64458;BMP280;58438;51.200;7.252;2024-01-11T13:54:12;99182.84;;;3.55
64458;BMP280;58438;51.200;7.252;2024-01-11T13:57:14;99184.81;;;3.37
64458;BMP280;58438;51.200;7.252;2024-01-11T14:00:46;99188.66;;;3.12
64458;BMP280;58438;51.200;7.252;2024-01-11T14:35:20;99184.19;;;2.17
64458;BMP280;58438;51.200;7.252;2024-01-11T16:15:04;99227.97;;;-1.02
64458;BMP280;58438;51.200;7.252;2024-01-11T17:42:01;99079.72;;;-1.72
64458;BMP280;58438;51.200;7.252;2024-01-11T17:44:48;99072.00;;;-1.77
64458;BMP280;58438;51.200;7.252;2024-01-11T17:47:35;99068.47;;;-1.62
64458;BMP280;58438;51.200;7.252;2024-01-11T17:50:22;99057.78;;;-1.62
64458;BMP280;58438;51.200;7.252;2024-01-11T17:53:09;99051.63;;;-1.66
64458;BMP280;58438;51.200;7.252;2024-01-11T17:55:57;99036.25;;;-1.72
64458;BMP280;58438;51.200;7.252;2024-01-11T17:58:45;99025.34;;;-1.64
64458;BMP280;58438;51.200;7.252;2024-01-11T18:01:33;99024.22;;;-1.63
64458;BMP280;58438;51.200;7.252;2024-01-11T18:04:20;99025.75;;;-1.62
64458;BMP280;58438;51.200;7.252;2024-01-11T18:07:07;99023.97;;;-1.54
64458;BMP280;58438;51.200;7.252;2024-01-11T18:09:54;99021.38;;;-1.51
64458;BMP280;58438;51.200;7.252;2024-01-11T18:12:41;99015.31;;;-1.48
64458;BMP280;58438;51.200;7.252;2024-01-11T18:15:30;99010.81;;;-1.44
64458;BMP280;58438;51.200;7.252;2024-01-11T18:18:17;98987.00;;;-1.52
64458;BMP280;58438;51.200;7.252;2024-01-11T18:21:05;98976.16;;;-1.63
64458;BMP280;58438;51.200;7.252;2024-01-11T18:23:52;98975.53;;;-1.56
64458;BMP280;58438;51.200;7.252;2024-01-11T18:26:39;98971.97;;;-1.38
64458;BMP280;58438;51.200;7.252;2024-01-11T18:29:26;98996.06;;;-1.34
64458;BMP280;58438;51.200;7.252;2024-01-11T18:32:16;98997.34;;;-1.28
64458;BMP280;58438;51.200;7.252;2024-01-11T18:35:03;99008.31;;;-1.33
64458;BMP280;58438;51.200;7.252;2024-01-11T18:37:50;99003.38;;;-1.54
64458;BMP280;58438;51.200;7.252;2024-01-11T18:40:37;98967.75;;;-1.65
64458;BMP280;58438;51.200;7.252;2024-01-11T18:43:24;98956.41;;;-1.58
64458;BMP280;58438;51.200;7.252;2024-01-11T18:46:11;98960.13;;;-1.63
64458;BMP280;58438;51.200;7.252;2024-01-11T18:49:01;98947.00;;;-1.75
64458;BMP280;58438;51.200;7.252;2024-01-11T18:51:49;98938.03;;;-1.63
64458;BMP280;58438;51.200;7.252;2024-01-11T18:54:36;98937.25;;;-1.64
64458;BMP280;58438;51.200;7.252;2024-01-11T18:57:23;98934.69;;;-1.57
64458;BMP280;58438;51.200;7.252;2024-01-11T19:00:10;98924.34;;;-1.58
64458;BMP280;58438;51.200;7.252;2024-01-11T19:02:57;98924.72;;;-1.60
64458;BMP280;58438;51.200;7.252;2024-01-11T19:05:46;98930.78;;;-1.63
64458;BMP280;58438;51.200;7.252;2024-01-11T19:08:33;98932.41;;;-1.55
64458;BMP280;58438;51.200;7.252;2024-01-11T19:11:21;98927.91;;;-1.51
64458;BMP280;58438;51.200;7.252;2024-01-11T19:14:09;98920.38;;;-1.45
64458;BMP280;58438;51.200;7.252;2024-01-11T19:16:59;98922.19;;;-1.49
64458;BMP280;58438;51.200;7.252;2024-01-11T19:19:46;98921.16;;;-1.45
64458;BMP280;58438;51.200;7.252;2024-01-11T19:22:34;98932.88;;;-1.27
64458;BMP280;58438;51.200;7.252;2024-01-11T19:25:21;98939.47;;;-1.21
64458;BMP280;58438;51.200;7.252;2024-01-11T19:28:08;98942.13;;;-1.21
64458;BMP280;58438;51.200;7.252;2024-01-11T19:30:56;98938.00;;;-1.15
64458;BMP280;58438;51.200;7.252;2024-01-11T19:33:43;98941.34;;;-1.21
64458;BMP280;58438;51.200;7.252;2024-01-11T19:36:30;98934.81;;;-1.24
64458;BMP280;58438;51.200;7.252;2024-01-11T19:39:19;98930.63;;;-1.25
64458;BMP280;58438;51.200;7.252;2024-01-11T19:42:06;98931.00;;;-1.23
64458;BMP280;58438;51.200;7.252;2024-01-11T19:44:54;98928.88;;;-1.14
64458;BMP280;58438;51.200;7.252;2024-01-11T19:47:40;98937.28;;;-1.12
64458;BMP280;58438;51.200;7.252;2024-01-11T19:50:28;98936.59;;;-1.05
64458;BMP280;58438;51.200;7.252;2024-01-11T19:53:16;98948.09;;;-1.05
64458;BMP280;58438;51.200;7.252;2024-01-11T19:56:10;98934.28;;;-1.07
64458;BMP280;58438;51.200;7.252;2024-01-11T19:59:01;98938.94;;;-1.04
64458;BMP280;58438;51.200;7.252;2024-01-11T20:01:49;98930.47;;;-1.09
64458;BMP280;58438;51.200;7.252;2024-01-11T20:04:37;98928.16;;;-1.11
64458;BMP280;58438;51.200;7.252;2024-01-11T20:07:24;98934.28;;;-1.07
64458;BMP280;58438;51.200;7.252;2024-01-11T20:10:11;98925.78;;;-1.16
64458;BMP280;58438;51.200;7.252;2024-01-11T20:13:00;98933.22;;;-1.02
64458;BMP280;58438;51.200;7.252;2024-01-11T20:15:47;98939.72;;;-1.00
64458;BMP280;58438;51.200;7.252;2024-01-11T20:18:34;98948.97;;;-0.94
64458;BMP280;58438;51.200;7.252;2024-01-11T20:21:21;98945.22;;;-0.89
64458;BMP280;58438;51.200;7.252;2024-01-11T20:24:09;98948.22;;;-0.94
64458;BMP280;58438;51.200;7.252;2024-01-11T20:26:56;98942.06;;;-0.98
64458;BMP280;58438;51.200;7.252;2024-01-11T20:29:45;98952.09;;;-0.88
64458;BMP280;58438;51.200;7.252;2024-01-11T20:32:33;98955.91;;;-0.89
64458;BMP280;58438;51.200;7.252;2024-01-11T20:35:20;98952.06;;;-0.92
64458;BMP280;58438;51.200;7.252;2024-01-11T20:38:07;98952.97;;;-0.81
64458;BMP280;58438;51.200;7.252;2024-01-11T20:40:55;98957.84;;;-0.90
64458;BMP280;58438;51.200;7.252;2024-01-11T20:43:42;98942.09;;;-0.95
64458;BMP280;58438;51.200;7.252;2024-01-11T20:46:31;98953.28;;;-0.86
64458;BMP280;58438;51.200;7.252;2024-01-11T20:49:19;98952.63;;;-0.79
64458;BMP280;58438;51.200;7.252;2024-01-11T20:52:06;98960.69;;;-0.76
64458;BMP280;58438;51.200;7.252;2024-01-11T20:54:53;98961.06;;;-0.77
64458;BMP280;58438;51.200;7.252;2024-01-11T20:57:40;98964.91;;;-0.75
64458;BMP280;58438;51.200;7.252;2024-01-11T21:00:27;98963.00;;;-0.74
64458;BMP280;58438;51.200;7.252;2024-01-11T21:03:15;98958.41;;;-0.74
64458;BMP280;58438;51.200;7.252;2024-01-11T21:06:03;98959.91;;;-0.76
64458;BMP280;58438;51.200;7.252;2024-01-11T21:08:51;98958.03;;;-0.76
64458;BMP280;58438;51.200;7.252;2024-01-11T21:11:38;98959.66;;;-0.68
64458;BMP280;58438;51.200;7.252;2024-01-11T21:14:26;98963.78;;;-0.74
64458;BMP280;58438;51.200;7.252;2024-01-11T21:17:13;98962.63;;;-0.73
64458;BMP280;58438;51.200;7.252;2024-01-11T21:20:02;98955.78;;;-0.70
64458;BMP280;58438;51.200;7.252;2024-01-11T21:22:50;98948.44;;;-0.77
64458;BMP280;58438;51.200;7.252;2024-01-11T21:25:37;98947.28;;;-0.79
64458;BMP280;58438;51.200;7.252;2024-01-11T21:28:25;98939.22;;;-0.83
64458;BMP280;58438;51.200;7.252;2024-01-11T21:31:12;98931.66;;;-0.77
64458;BMP280;58438;51.200;7.252;2024-01-11T21:33:59;98928.84;;;-0.88
64458;BMP280;58438;51.200;7.252;2024-01-11T21:36:50;98930.47;;;-0.80
64458;BMP280;58438;51.200;7.252;2024-01-11T21:39:37;98912.34;;;-0.93
64458;BMP280;58438;51.200;7.252;2024-01-11T21:42:24;98910.53;;;-0.86
64458;BMP280;58438;51.200;7.252;2024-01-11T21:45:11;98901.09;;;-0.76
64458;BMP280;58438;51.200;7.252;2024-01-11T21:47:59;98908.41;;;-0.70
64458;BMP280;58438;51.200;7.252;2024-01-11T21:50:46;98911.59;;;-0.61
64458;BMP280;58438;51.200;7.252;2024-01-11T21:53:35;98916.53;;;-0.63
64458;BMP280;58438;51.200;7.252;2024-01-11T21:56:22;98914.28;;;-0.61
64458;BMP280;58438;51.200;7.252;2024-01-11T21:59:09;98903.50;;;-0.68
64458;BMP280;58438;51.200;7.252;2024-01-11T22:01:56;98905.75;;;-0.70
64458;BMP280;58438;51.200;7.252;2024-01-11T22:04:43;98900.47;;;-0.63
64458;BMP280;58438;51.200;7.252;2024-01-11T22:07:30;98898.59;;;-0.62
64458;BMP280;58438;51.200;7.252;2024-01-11T22:10:18;98898.19;;;-0.64
64458;BMP280;58438;51.200;7.252;2024-01-11T22:13:06;98894.81;;;-0.58
64458;BMP280;58438;51.200;7.252;2024-01-11T22:15:53;98893.69;;;-0.57
64458;BMP280;58438;51.200;7.252;2024-01-11T22:18:39;98902.09;;;-0.55
64458;BMP280;58438;51.200;7.252;2024-01-11T22:21:28;98909.44;;;-0.48
64458;BMP280;58438;51.200;7.252;2024-01-11T22:24:15;98912.84;;;-0.51
64458;BMP280;58438;51.200;7.252;2024-01-11T22:27:04;98896.75;;;-0.55
64458;BMP280;58438;51.200;7.252;2024-01-11T22:29:51;98891.44;;;-0.51
64458;BMP280;58438;51.200;7.252;2024-01-11T22:32:38;98891.31;;;-0.62
64458;BMP280;58438;51.200;7.252;2024-01-11T22:35:26;98889.16;;;-0.53